sensor_id;sensor_type;location;lat;lon;timestamp;pressure;altitude;pressure_sealevel;temperature;humidity
13314;BME280;6725;48.112;11.604;2023-04-23T00:01:17;94749.09;;;15.46;100.00
13314;BME280;6725;48.112;11.604;2023-04-23T00:03:43;94744.06;;;15.44;100.00
13314;BME280;6725;48.112;11.604;2023-04-23T00:06:09;94742.97;;;15.42;100.00
13314;BME280;6725;48.112;11.604;2023-04-23T00:08:38;94742.19;;;15.41;100.00
13314;BME280;6725;48.112;11.604;2023-04-23T00:11:04;94741.44;;;15.41;100.00
13314;BME280;6725;48.112;11.604;2023-04-23T00:13:30;94736.06;;;15.37;100.00
13314;BME280;6725;48.112;11.604;2023-04-23T00:15:56;94734.53;;;15.36;100.00
13314;BME280;6725;48.112;11.604;2023-04-23T00:18:22;94734.53;;;15.36;100.00
13314;BME280;6725;48.112;11.604;2023-04-23T00:20:47;94734.16;;;15.34;100.00
13314;BME280;6725;48.112;11.604;2023-04-23T00:23:12;94736.63;;;15.32;100.00
13314;BME280;6725;48.112;11.604;2023-04-23T00:25:38;94721.34;;;15.31;100.00
13314;BME280;6725;48.112;11.604;2023-04-23T00:28:03;94721.34;;;15.31;100.00
13314;BME280;6725;48.112;11.604;2023-04-23T00:30:29;94718.25;;;15.29;100.00
13314;BME280;6725;48.112;11.604;2023-04-23T00:32:54;94714.44;;;15.27;100.00
13314;BME280;6725;48.112;11.604;2023-04-23T00:35:20;94720.22;;;15.29;100.00
13314;BME280;6725;48.112;11.604;2023-04-23T00:37:45;94714.28;;;15.30;100.00
13314;BME280;6725;48.112;11.604;2023-04-23T00:40:11;94726.84;;;15.31;100.00
13314;BME280;6725;48.112;11.604;2023-04-23T00:42:38;94721.34;;;15.31;100.00
13314;BME280;6725;48.112;11.604;2023-04-23T00:45:06;94726.84;;;15.31;100.00
13314;BME280;6725;48.112;11.604;2023-04-23T00:47:33;94721.00;;;15.29;100.00
13314;BME280;6725;48.112;11.604;2023-04-23T00:49:58;94719.16;;;15.26;100.00
13314;BME280;6725;48.112;11.604;2023-04-23T00:52:24;94711.88;;;15.11;100.00
13314;BME280;6725;48.112;11.604;2023-04-23T00:54:49;94724.03;;;15.22;100.00
13314;BME280;6725;48.112;11.604;2023-04-23T00:57:15;94717.00;;;15.21;100.00
13314;BME280;6725;48.112;11.604;2023-04-23T00:59:41;94718.53;;;15.22;100.00
13314;BME280;6725;48.112;11.604;2023-04-23T01:02:06;94720.31;;;15.16;100.00
13314;BME280;6725;48.112;11.604;2023-04-23T01:04:32;94722.13;;;15.10;100.00
13314;BME280;6725;48.112;11.604;2023-04-23T01:06:58;94713.53;;;15.08;100.00
13314;BME280;6725;48.112;11.604;2023-04-23T01:09:25;94717.50;;;15.07;100.00
13314;BME280;6725;48.112;11.604;2023-04-23T01:11:52;94715.97;;;15.06;100.00
13314;BME280;6725;48.112;11.604;2023-04-23T01:14:17;94708.63;;;15.03;100.00
13314;BME280;6725;48.112;11.604;2023-04-23T01:16:43;94718.41;;;15.04;100.00
13314;BME280;6725;48.112;11.604;2023-04-23T01:19:09;94712.16;;;15.04;100.00
13314;BME280;6725;48.112;11.604;2023-04-23T01:21:36;94717.66;;;15.04;100.00
13314;BME280;6725;48.112;11.604;2023-04-23T01:24:03;94711.38;;;15.03;100.00
13314;BME280;6725;48.112;11.604;2023-04-23T01:26:29;94710.59;;;15.03;100.00
13314;BME280;6725;48.112;11.604;2023-04-23T01:28:54;94711.03;;;15.01;100.00
13314;BME280;6725;48.112;11.604;2023-04-23T01:31:20;94700.97;;;14.98;100.00
13314;BME280;6725;48.112;11.604;2023-04-23T01:33:46;94701.41;;;14.97;100.00
13314;BME280;6725;48.112;11.604;2023-04-23T01:36:13;94703.81;;;14.95;100.00
13314;BME280;6725;48.112;11.604;2023-04-23T01:38:38;94706.72;;;14.91;100.00
13314;BME280;6725;48.112;11.604;2023-04-23T01:41:05;94704.84;;;14.88;100.00
13314;BME280;6725;48.112;11.604;2023-04-23T01:43:30;94707.25;;;14.86;100.00
13314;BME280;6725;48.112;11.604;2023-04-23T01:45:56;94708.81;;;14.87;100.00
13314;BME280;6725;48.112;11.604;2023-04-23T01:48:23;94716.72;;;14.85;100.00
13314;BME280;6725;48.112;11.604;2023-04-23T01:50:49;94712.06;;;14.73;100.00
13314;BME280;6725;48.112;11.604;2023-04-23T01:53:15;94716.59;;;14.67;100.00
13314;BME280;6725;48.112;11.604;2023-04-23T01:55:42;94714.41;;;14.62;100.00
13314;BME280;6725;48.112;11.604;2023-04-23T01:58:09;94720.03;;;14.59;100.00
13314;BME280;6725;48.112;11.604;2023-04-23T02:00:35;94713.25;;;14.51;100.00
13314;BME280;6725;48.112;11.604;2023-04-23T02:03:01;94716.31;;;14.53;100.00
13314;BME280;6725;48.112;11.604;2023-04-23T02:05:27;94717.84;;;14.54;100.00
13314;BME280;6725;48.112;11.604;2023-04-23T02:07:53;94723.22;;;14.57;100.00
13314;BME280;6725;48.112;11.604;2023-04-23T02:10:18;94711.56;;;14.53;100.00
13314;BME280;6725;48.112;11.604;2023-04-23T02:12:45;94723.34;;;14.54;100.00
13314;BME280;6725;48.112;11.604;2023-04-23T02:15:11;94719.81;;;14.53;100.00
13314;BME280;6725;48.112;11.604;2023-04-23T02:17:37;94721.69;;;14.56;100.00
13314;BME280;6725;48.112;11.604;2023-04-23T02:20:05;94725.66;;;14.55;100.00
13314;BME280;6725;48.112;11.604;2023-04-23T02:22:31;94723.78;;;14.52;100.00
13314;BME280;6725;48.112;11.604;2023-04-23T02:24:56;94716.31;;;14.53;100.00
13314;BME280;6725;48.112;11.604;2023-04-23T02:27:22;94713.69;;;14.49;100.00
13314;BME280;6725;48.112;11.604;2023-04-23T02:29:48;94717.97;;;14.50;100.00
13314;BME280;6725;48.112;11.604;2023-04-23T02:32:14;94714.91;;;14.48;100.00
13314;BME280;6725;48.112;11.604;2023-04-23T02:34:39;94704.16;;;14.41;100.00
13314;BME280;6725;48.112;11.604;2023-04-23T02:37:05;94708.13;;;14.40;100.00
13314;BME280;6725;48.112;11.604;2023-04-23T02:39:31;94719.34;;;14.33;100.00
13314;BME280;6725;48.112;11.604;2023-04-23T02:41:56;94714.94;;;14.36;100.00
13314;BME280;6725;48.112;11.604;2023-04-23T02:44:23;94718.47;;;14.36;100.00
13314;BME280;6725;48.112;11.604;2023-04-23T02:46:48;94720.78;;;14.38;100.00
13314;BME280;6725;48.112;11.604;2023-04-23T02:49:14;94729.44;;;14.36;100.00
13314;BME280;6725;48.112;11.604;2023-04-23T02:51:39;94724.72;;;14.37;100.00
13314;BME280;6725;48.112;11.604;2023-04-23T02:54:04;94716.91;;;14.35;100.00
13314;BME280;6725;48.112;11.604;2023-04-23T02:56:30;94717.81;;;14.32;100.00
13314;BME280;6725;48.112;11.604;2023-04-23T02:58:56;94718.56;;;14.33;100.00
13314;BME280;6725;48.112;11.604;2023-04-23T03:01:21;94722.00;;;14.24;100.00
13314;BME280;6725;48.112;11.604;2023-04-23T03:03:47;94719.69;;;14.23;100.00
13314;BME280;6725;48.112;11.604;2023-04-23T03:06:12;94728.47;;;14.18;100.00
13314;BME280;6725;48.112;11.604;2023-04-23T03:08:37;94722.31;;;14.14;100.00
13314;BME280;6725;48.112;11.604;2023-04-23T03:11:03;94725.50;;;14.12;100.00
13314;BME280;6725;48.112;11.604;2023-04-23T03:13:28;94729.56;;;14.08;100.00
13314;BME280;6725;48.112;11.604;2023-04-23T03:15:54;94730.44;;;14.05;100.00
13314;BME280;6725;48.112;11.604;2023-04-23T03:18:20;94722.09;;;14.08;100.00
13314;BME280;6725;48.112;11.604;2023-04-23T03:20:45;94735.84;;;14.08;100.00
13314;BME280;6725;48.112;11.604;2023-04-23T03:23:11;94732.22;;;14.11;100.00
13314;BME280;6725;48.112;11.604;2023-04-23T03:25:36;94738.16;;;14.10;100.00
13314;BME280;6725;48.112;11.604;2023-04-23T03:28:02;94742.75;;;14.13;100.00
13314;BME280;6725;48.112;11.604;2023-04-23T03:30:28;94734.84;;;14.15;100.00
13314;BME280;6725;48.112;11.604;2023-04-23T03:32:58;94737.13;;;14.16;100.00
13314;BME280;6725;48.112;11.604;2023-04-23T03:35:24;94743.41;;;14.17;100.00
13314;BME280;6725;48.112;11.604;2023-04-23T03:37:50;94728.47;;;14.18;100.00
13314;BME280;6725;48.112;11.604;2023-04-23T03:40:15;94737.47;;;14.18;100.00
13314;BME280;6725;48.112;11.604;2023-04-23T03:42:41;94734.72;;;14.18;100.00
13314;BME280;6725;48.112;11.604;2023-04-23T03:45:06;94742.88;;;14.22;100.00
13314;BME280;6725;48.112;11.604;2023-04-23T03:47:32;94744.84;;;14.21;100.00
13314;BME280;6725;48.112;11.604;2023-04-23T03:49:57;94741.88;;;14.16;100.00
13314;BME280;6725;48.112;11.604;2023-04-23T03:52:23;94740.22;;;14.18;100.00
13314;BME280;6725;48.112;11.604;2023-04-23T03:54:48;94748.13;;;14.16;100.00
13314;BME280;6725;48.112;11.604;2023-04-23T03:57:13;94748.91;;;14.17;100.00
13314;BME280;6725;48.112;11.604;2023-04-23T03:59:39;94749.22;;;14.19;100.00
13314;BME280;6725;48.112;11.604;2023-04-23T04:02:04;94750.34;;;14.21;100.00
13314;BME280;6725;48.112;11.604;2023-04-23T04:04:30;94750.34;;;14.21;100.00
13314;BME280;6725;48.112;11.604;2023-04-23T04:06:57;94751.88;;;14.22;100.00
13314;BME280;6725;48.112;11.604;2023-04-23T04:09:22;94752.53;;;14.26;100.00
13314;BME280;6725;48.112;11.604;2023-04-23T04:11:48;94751.75;;;14.26;100.00
13314;BME280;6725;48.112;11.604;2023-04-23T04:14:13;94759.25;;;14.25;100.00
13314;BME280;6725;48.112;11.604;2023-04-23T04:16:39;94754.06;;;13.77;100.00
13314;BME280;6725;48.112;11.604;2023-04-23T04:19:06;94757.44;;;14.19;100.00
13314;BME280;6725;48.112;11.604;2023-04-23T04:21:31;94757.38;;;14.22;100.00
13314;BME280;6725;48.112;11.604;2023-04-23T04:23:58;94761.31;;;14.21;100.00
13314;BME280;6725;48.112;11.604;2023-04-23T04:26:26;94767.50;;;14.25;100.00
13314;BME280;6725;48.112;11.604;2023-04-23T04:28:51;94767.59;;;14.22;100.00
13314;BME280;6725;48.112;11.604;2023-04-23T04:31:17;94774.72;;;14.19;100.00
13314;BME280;6725;48.112;11.604;2023-04-23T04:33:44;94775.28;;;14.14;100.00
13314;BME280;6725;48.112;11.604;2023-04-23T04:36:10;94775.59;;;14.16;100.00
13314;BME280;6725;48.112;11.604;2023-04-23T04:38:35;94778.66;;;14.18;100.00
13314;BME280;6725;48.112;11.604;2023-04-23T04:41:04;94777.13;;;14.17;100.00
13314;BME280;6725;48.112;11.604;2023-04-23T04:43:30;94784.59;;;14.04;100.00
13314;BME280;6725;48.112;11.604;2023-04-23T04:45:57;94789.66;;;13.93;100.00
13314;BME280;6725;48.112;11.604;2023-04-23T04:48:23;94790.31;;;13.72;100.00
13314;BME280;6725;48.112;11.604;2023-04-23T04:50:49;94780.41;;;13.62;100.00
13314;BME280;6725;48.112;11.604;2023-04-23T04:53:14;94783.91;;;13.50;100.00
13314;BME280;6725;48.112;11.604;2023-04-23T04:55:40;94778.81;;;13.36;100.00
13314;BME280;6725;48.112;11.604;2023-04-23T04:58:05;94772.69;;;13.32;100.00
13314;BME280;6725;48.112;11.604;2023-04-23T05:00:31;94759.75;;;13.32;100.00
13314;BME280;6725;48.112;11.604;2023-04-23T05:02:57;94760.38;;;13.24;100.00
13314;BME280;6725;48.112;11.604;2023-04-23T05:05:24;94744.78;;;13.21;100.00
13314;BME280;6725;48.112;11.604;2023-04-23T05:07:50;94748.09;;;13.16;100.00
13314;BME280;6725;48.112;11.604;2023-04-23T05:10:18;94728.47;;;13.17;100.00
13314;BME280;6725;48.112;11.604;2023-04-23T05:12:45;94720.97;;;13.18;100.00
13314;BME280;6725;48.112;11.604;2023-04-23T05:15:12;94710.00;;;13.18;100.00
13314;BME280;6725;48.112;11.604;2023-04-23T05:17:39;94709.50;;;13.23;100.00
13314;BME280;6725;48.112;11.604;2023-04-23T05:20:05;94706.41;;;13.21;100.00
13314;BME280;6725;48.112;11.604;2023-04-23T05:22:32;94707.72;;;13.29;100.00
13314;BME280;6725;48.112;11.604;2023-04-23T05:24:57;94705.97;;;13.22;100.00
13314;BME280;6725;48.112;11.604;2023-04-23T05:27:22;94709.28;;;13.30;100.00
13314;BME280;6725;48.112;11.604;2023-04-23T05:29:48;94709.75;;;13.41;100.00
13314;BME280;6725;48.112;11.604;2023-04-23T05:32:13;94712.47;;;13.41;100.00
13314;BME280;6725;48.112;11.604;2023-04-23T05:34:39;94714.13;;;13.51;100.00
13314;BME280;6725;48.112;11.604;2023-04-23T05:37:04;94711.16;;;13.46;100.00
13314;BME280;6725;48.112;11.604;2023-04-23T05:39:30;94719.38;;;13.58;100.00
13314;BME280;6725;48.112;11.604;2023-04-23T05:41:55;94721.59;;;13.63;100.00
13314;BME280;6725;48.112;11.604;2023-04-23T05:44:22;94718.63;;;13.58;100.00
13314;BME280;6725;48.112;11.604;2023-04-23T05:46:47;94719.81;;;13.57;100.00
13314;BME280;6725;48.112;11.604;2023-04-23T05:49:13;94718.50;;;13.61;100.00
13314;BME280;6725;48.112;11.604;2023-04-23T05:51:38;94719.28;;;13.62;100.00
13314;BME280;6725;48.112;11.604;2023-04-23T05:54:03;94711.72;;;13.53;100.00
13314;BME280;6725;48.112;11.604;2023-04-23T05:56:29;94710.50;;;13.54;100.00
13314;BME280;6725;48.112;11.604;2023-04-23T05:58:54;94705.56;;;13.49;100.00
13314;BME280;6725;48.112;11.604;2023-04-23T06:01:19;94695.47;;;13.46;100.00
13314;BME280;6725;48.112;11.604;2023-04-23T06:03:45;94696.25;;;13.47;100.00
13314;BME280;6725;48.112;11.604;2023-04-23T06:06:10;94690.09;;;13.43;100.00
13314;BME280;6725;48.112;11.604;2023-04-23T06:08:37;94678.78;;;13.41;100.00
13314;BME280;6725;48.112;11.604;2023-04-23T06:11:03;94665.63;;;13.48;100.00
13314;BME280;6725;48.112;11.604;2023-04-23T06:13:28;94667.25;;;13.33;100.00
13314;BME280;6725;48.112;11.604;2023-04-23T06:15:55;94656.06;;;13.40;100.00
13314;BME280;6725;48.112;11.604;2023-04-23T06:18:21;94644.13;;;13.34;100.00
13314;BME280;6725;48.112;11.604;2023-04-23T06:20:46;94633.59;;;13.20;100.00
13314;BME280;6725;48.112;11.604;2023-04-23T06:23:13;94609.78;;;13.17;100.00
13314;BME280;6725;48.112;11.604;2023-04-23T06:25:38;94588.94;;;13.07;100.00
13314;BME280;6725;48.112;11.604;2023-04-23T06:28:05;94566.25;;;13.06;100.00
13314;BME280;6725;48.112;11.604;2023-04-23T06:30:30;94554.22;;;13.04;100.00
13314;BME280;6725;48.112;11.604;2023-04-23T06:32:56;94524.94;;;13.13;100.00
13314;BME280;6725;48.112;11.604;2023-04-23T06:35:21;94505.84;;;13.10;100.00
13314;BME280;6725;48.112;11.604;2023-04-23T06:37:46;94479.31;;;13.07;100.00
13314;BME280;6725;48.112;11.604;2023-04-23T06:40:12;94466.25;;;13.11;100.00
13314;BME280;6725;48.112;11.604;2023-04-23T06:42:37;94437.31;;;13.10;100.00
13314;BME280;6725;48.112;11.604;2023-04-23T06:45:03;94414.41;;;13.04;100.00
13314;BME280;6725;48.112;11.604;2023-04-23T06:47:29;94379.34;;;12.99;100.00
13314;BME280;6725;48.112;11.604;2023-04-23T06:49:56;94404.34;;;12.88;100.00
13314;BME280;6725;48.112;11.604;2023-04-23T06:52:22;94320.34;;;12.94;100.00
13314;BME280;6725;48.112;11.604;2023-04-23T06:54:47;94166.13;;;12.94;100.00
13314;BME280;6725;48.112;11.604;2023-04-23T06:57:12;94096.41;;;12.95;100.00
13314;BME280;6725;48.112;11.604;2023-04-23T06:59:38;94009.69;;;13.01;100.00
13314;BME280;6725;48.112;11.604;2023-04-23T07:02:03;93753.44;;;12.96;100.00
13314;BME280;6725;48.112;11.604;2023-04-23T07:04:28;93689.81;;;13.01;100.00
13314;BME280;6725;48.112;11.604;2023-04-23T07:06:54;93621.09;;;13.14;100.00
13314;BME280;6725;48.112;11.604;2023-04-23T07:09:19;93587.63;;;13.10;100.00
13314;BME280;6725;48.112;11.604;2023-04-23T07:11:45;93575.28;;;13.14;100.00
13314;BME280;6725;48.112;11.604;2023-04-23T07:14:10;93561.72;;;13.11;100.00
13314;BME280;6725;48.112;11.604;2023-04-23T07:16:35;93545.66;;;13.04;100.00
13314;BME280;6725;48.112;11.604;2023-04-23T07:19:01;93515.38;;;12.98;100.00
13314;BME280;6725;48.112;11.604;2023-04-23T07:21:27;93489.75;;;13.01;100.00
13314;BME280;6725;48.112;11.604;2023-04-23T07:23:55;93470.44;;;13.05;100.00
13314;BME280;6725;48.112;11.604;2023-04-23T07:26:20;93444.75;;;13.17;100.00
13314;BME280;6725;48.112;11.604;2023-04-23T07:28:46;93427.84;;;13.18;100.00
13314;BME280;6725;48.112;11.604;2023-04-23T07:31:12;93415.44;;;13.08;100.00
13314;BME280;6725;48.112;11.604;2023-04-23T07:33:38;93412.56;;;13.03;100.00
13314;BME280;6725;48.112;11.604;2023-04-23T07:36:03;93393.13;;;13.01;100.00
13314;BME280;6725;48.112;11.604;2023-04-23T07:38:29;93393.59;;;12.90;100.00
13314;BME280;6725;48.112;11.604;2023-04-23T07:40:54;93372.47;;;12.91;100.00
13314;BME280;6725;48.112;11.604;2023-04-23T07:43:20;93370.94;;;12.90;100.00
13314;BME280;6725;48.112;11.604;2023-04-23T07:45:45;93334.81;;;13.00;100.00
13314;BME280;6725;48.112;11.604;2023-04-23T07:48:11;93312.63;;;13.13;100.00
13314;BME280;6725;48.112;11.604;2023-04-23T07:50:36;93289.22;;;13.12;100.00
13314;BME280;6725;48.112;11.604;2023-04-23T07:53:02;93291.06;;;13.06;100.00
13314;BME280;6725;48.112;11.604;2023-04-23T07:55:27;93287.97;;;13.13;100.00
13314;BME280;6725;48.112;11.604;2023-04-23T07:57:53;93288.63;;;13.08;100.00
13314;BME280;6725;48.112;11.604;2023-04-23T08:00:18;93285.59;;;13.06;100.00
13314;BME280;6725;48.112;11.604;2023-04-23T08:02:43;93292.00;;;13.03;100.00
13314;BME280;6725;48.112;11.604;2023-04-23T08:05:09;93286.88;;;12.96;100.00
13314;BME280;6725;48.112;11.604;2023-04-23T08:07:35;93283.22;;;12.99;100.00
13314;BME280;6725;48.112;11.604;2023-04-23T08:10:00;93269.16;;;13.06;100.00
13314;BME280;6725;48.112;11.604;2023-04-23T08:12:30;93271.31;;;13.02;100.00
13314;BME280;6725;48.112;11.604;2023-04-23T08:14:57;93273.50;;;12.98;100.00
13314;BME280;6725;48.112;11.604;2023-04-23T08:17:23;93263.09;;;13.02;100.00
13314;BME280;6725;48.112;11.604;2023-04-23T08:19:48;93246.28;;;13.09;100.00
13314;BME280;6725;48.112;11.604;2023-04-23T08:22:13;93227.97;;;13.15;100.00
13314;BME280;6725;48.112;11.604;2023-04-23T08:24:41;93224.19;;;13.27;100.00
13314;BME280;6725;48.112;11.604;2023-04-23T08:27:06;93225.97;;;13.45;100.00
13314;BME280;6725;48.112;11.604;2023-04-23T08:29:32;93217.91;;;13.70;100.00
13314;BME280;6725;48.112;11.604;2023-04-23T08:31:57;93251.00;;;13.81;100.00
13314;BME280;6725;48.112;11.604;2023-04-23T08:34:23;93252.78;;;14.19;100.00
13314;BME280;6725;48.112;11.604;2023-04-23T08:36:48;93308.75;;;14.21;100.00
13314;BME280;6725;48.112;11.604;2023-04-23T08:39:13;93374.06;;;14.32;100.00
13314;BME280;6725;48.112;11.604;2023-04-23T08:41:40;93464.22;;;14.33;100.00
13314;BME280;6725;48.112;11.604;2023-04-23T08:44:18;93514.00;;;14.70;100.00
13314;BME280;6725;48.112;11.604;2023-04-23T08:46:44;93640.31;;;14.93;100.00
13314;BME280;6725;48.112;11.604;2023-04-23T08:49:16;93820.88;;;15.49;100.00
13314;BME280;6725;48.112;11.604;2023-04-23T08:51:51;93962.28;;;16.18;100.00
13314;BME280;6725;48.112;11.604;2023-04-23T08:54:27;94204.25;;;16.43;100.00
13314;BME280;6725;48.112;11.604;2023-04-23T08:56:56;94375.44;;;16.36;100.00
13314;BME280;6725;48.112;11.604;2023-04-23T08:59:25;94496.13;;;16.14;100.00
13314;BME280;6725;48.112;11.604;2023-04-23T09:01:53;94549.22;;;15.79;100.00
13314;BME280;6725;48.112;11.604;2023-04-23T09:04:18;94568.31;;;15.64;100.00
13314;BME280;6725;48.112;11.604;2023-04-23T09:06:45;94559.50;;;15.39;100.00
13314;BME280;6725;48.112;11.604;2023-04-23T09:09:14;94527.59;;;15.50;100.00
13314;BME280;6725;48.112;11.604;2023-04-23T09:11:40;94508.97;;;15.72;100.00
13314;BME280;6725;48.112;11.604;2023-04-23T09:14:05;94513.53;;;15.48;100.00
13314;BME280;6725;48.112;11.604;2023-04-23T09:16:31;94515.34;;;15.42;100.00
13314;BME280;6725;48.112;11.604;2023-04-23T09:18:57;94504.84;;;15.59;100.00
13314;BME280;6725;48.112;11.604;2023-04-23T09:21:23;94480.53;;;15.93;100.00
13314;BME280;6725;48.112;11.604;2023-04-23T09:23:51;94516.31;;;15.66;100.00
13314;BME280;6725;48.112;11.604;2023-04-23T09:26:20;94524.06;;;15.41;100.00
13314;BME280;6725;48.112;11.604;2023-04-23T09:28:50;94521.97;;;15.14;100.00
13314;BME280;6725;48.112;11.604;2023-04-23T09:31:22;94506.59;;;15.35;100.00
13314;BME280;6725;48.112;11.604;2023-04-23T09:33:52;94480.69;;;15.90;100.00
13314;BME280;6725;48.112;11.604;2023-04-23T09:36:22;94523.50;;;15.82;100.00
13314;BME280;6725;48.112;11.604;2023-04-23T09:38:48;94539.56;;;15.74;100.00
13314;BME280;6725;48.112;11.604;2023-04-23T09:41:24;94542.75;;;15.55;100.00
13314;BME280;6725;48.112;11.604;2023-04-23T09:43:54;94538.66;;;15.77;100.00
13314;BME280;6725;48.112;11.604;2023-04-23T09:46:32;94539.25;;;15.81;100.00
13314;BME280;6725;48.112;11.604;2023-04-23T09:49:02;94551.50;;;15.71;100.00
13314;BME280;6725;48.112;11.604;2023-04-23T09:51:31;94560.19;;;15.61;100.00
13314;BME280;6725;48.112;11.604;2023-04-23T09:53:57;94559.59;;;15.66;100.00
13314;BME280;6725;48.112;11.604;2023-04-23T09:56:23;94548.75;;;15.80;100.00
13314;BME280;6725;48.112;11.604;2023-04-23T09:58:49;94559.16;;;15.76;100.00
13314;BME280;6725;48.112;11.604;2023-04-23T10:01:14;94567.69;;;15.60;100.00
13314;BME280;6725;48.112;11.604;2023-04-23T10:03:43;94567.91;;;15.35;100.00
13314;BME280;6725;48.112;11.604;2023-04-23T10:06:15;94556.91;;;15.35;100.00
13314;BME280;6725;48.112;11.604;2023-04-23T10:08:40;94548.84;;;15.41;100.00
13314;BME280;6725;48.112;11.604;2023-04-23T10:11:08;94544.84;;;15.51;100.00
13314;BME280;6725;48.112;11.604;2023-04-23T10:13:34;94541.16;;;15.36;100.00
13314;BME280;6725;48.112;11.604;2023-04-23T10:16:00;94534.25;;;15.31;100.00
13314;BME280;6725;48.112;11.604;2023-04-23T10:18:29;94522.69;;;15.45;100.00
13314;BME280;6725;48.112;11.604;2023-04-23T10:20:56;94525.13;;;15.43;100.00
13314;BME280;6725;48.112;11.604;2023-04-23T10:23:22;94530.03;;;15.48;100.00
13314;BME280;6725;48.112;11.604;2023-04-23T10:25:50;94544.94;;;15.78;100.00
13314;BME280;6725;48.112;11.604;2023-04-23T10:28:18;94551.50;;;15.89;100.00
13314;BME280;6725;48.112;11.604;2023-04-23T10:30:52;94583.03;;;15.88;100.00
13314;BME280;6725;48.112;11.604;2023-04-23T10:33:19;94587.34;;;16.16;100.00
13314;BME280;6725;48.112;11.604;2023-04-23T10:35:46;94603.72;;;16.38;100.00
13314;BME280;6725;48.112;11.604;2023-04-23T10:38:13;94625.59;;;16.05;100.00
13314;BME280;6725;48.112;11.604;2023-04-23T10:40:42;94636.28;;;16.03;100.00
13314;BME280;6725;48.112;11.604;2023-04-23T10:43:10;94616.91;;;16.25;100.00
13314;BME280;6725;48.112;11.604;2023-04-23T10:45:35;94630.22;;;16.63;100.00
13314;BME280;6725;48.112;11.604;2023-04-23T10:48:00;94637.53;;;17.11;100.00
13314;BME280;6725;48.112;11.604;2023-04-23T10:50:33;94650.66;;;17.34;100.00
13314;BME280;6725;48.112;11.604;2023-04-23T10:53:00;94662.88;;;17.60;100.00
13314;BME280;6725;48.112;11.604;2023-04-23T10:55:28;94672.47;;;17.73;100.00
13314;BME280;6725;48.112;11.604;2023-04-23T10:58:01;94664.69;;;18.28;100.00
13314;BME280;6725;48.112;11.604;2023-04-23T11:00:27;94680.38;;;18.22;100.00
13314;BME280;6725;48.112;11.604;2023-04-23T11:02:53;94671.19;;;18.48;100.00
13314;BME280;6725;48.112;11.604;2023-04-23T11:05:21;94673.56;;;19.46;100.00
13314;BME280;6725;48.112;11.604;2023-04-23T11:08:04;94671.63;;;19.67;100.00
13314;BME280;6725;48.112;11.604;2023-04-23T11:10:30;94672.72;;;19.25;100.00
13314;BME280;6725;48.112;11.604;2023-04-23T11:12:57;94665.19;;;20.04;100.00
13314;BME280;6725;48.112;11.604;2023-04-23T11:15:22;94659.13;;;20.80;100.00
13314;BME280;6725;48.112;11.604;2023-04-23T11:20:20;94648.50;;;21.75;100.00
13314;BME280;6725;48.112;11.604;2023-04-23T11:22:47;94647.56;;;22.15;100.00
13314;BME280;6725;48.112;11.604;2023-04-23T11:25:14;94647.53;;;21.78;100.00
13314;BME280;6725;48.112;11.604;2023-04-23T11:27:43;94650.34;;;21.02;100.00
13314;BME280;6725;48.112;11.604;2023-04-23T11:30:14;94651.25;;;20.53;100.00
13314;BME280;6725;48.112;11.604;2023-04-23T11:32:43;94650.09;;;19.91;100.00
13314;BME280;6725;48.112;11.604;2023-04-23T11:35:12;94648.53;;;20.04;100.00
13314;BME280;6725;48.112;11.604;2023-04-23T11:37:42;94650.47;;;19.98;100.00
13314;BME280;6725;48.112;11.604;2023-04-23T11:40:09;94660.84;;;20.03;100.00
13314;BME280;6725;48.112;11.604;2023-04-23T11:45:34;94652.13;;;19.76;100.00
13314;BME280;6725;48.112;11.604;2023-04-23T11:47:59;94643.00;;;20.04;100.00
13314;BME280;6725;48.112;11.604;2023-04-23T11:50:29;94650.13;;;19.18;100.00
13314;BME280;6725;48.112;11.604;2023-04-23T11:52:55;94645.16;;;19.07;100.00
13314;BME280;6725;48.112;11.604;2023-04-23T11:55:21;94638.09;;;19.06;100.00
13314;BME280;6725;48.112;11.604;2023-04-23T11:57:49;94637.63;;;19.37;100.00
13314;BME280;6725;48.112;11.604;2023-04-23T12:00:23;94633.72;;;19.29;100.00
13314;BME280;6725;48.112;11.604;2023-04-23T12:05:25;94623.59;;;19.26;100.00
13314;BME280;6725;48.112;11.604;2023-04-23T12:07:52;94613.41;;;19.81;100.00
13314;BME280;6725;48.112;11.604;2023-04-23T12:10:20;94606.78;;;19.00;100.00
13314;BME280;6725;48.112;11.604;2023-04-23T12:12:50;94606.13;;;19.34;100.00
13314;BME280;6725;48.112;11.604;2023-04-23T12:15:16;94611.72;;;18.67;100.00
13314;BME280;6725;48.112;11.604;2023-04-23T12:17:47;94605.84;;;18.51;100.00
13314;BME280;6725;48.112;11.604;2023-04-23T12:20:19;94607.13;;;18.64;100.00
13314;BME280;6725;48.112;11.604;2023-04-23T12:22:45;94595.44;;;18.46;100.00
13314;BME280;6725;48.112;11.604;2023-04-23T12:25:11;94599.09;;;18.52;100.00
13314;BME280;6725;48.112;11.604;2023-04-23T12:27:40;94598.03;;;18.26;100.00
13314;BME280;6725;48.112;11.604;2023-04-23T12:30:07;94606.09;;;17.91;100.00
13314;BME280;6725;48.112;11.604;2023-04-23T12:32:33;94594.81;;;17.48;100.00
13314;BME280;6725;48.112;11.604;2023-04-23T12:34:59;94598.44;;;17.54;100.00
13314;BME280;6725;48.112;11.604;2023-04-23T12:37:29;94586.63;;;18.33;100.00
13314;BME280;6725;48.112;11.604;2023-04-23T12:39:55;94588.44;;;18.59;100.00
13314;BME280;6725;48.112;11.604;2023-04-23T12:42:23;94583.16;;;18.23;100.00
13314;BME280;6725;48.112;11.604;2023-04-23T12:44:49;94579.94;;;17.78;100.00
13314;BME280;6725;48.112;11.604;2023-04-23T12:47:15;94574.78;;;18.32;100.00
13314;BME280;6725;48.112;11.604;2023-04-23T12:49:44;94560.50;;;18.72;100.00
13314;BME280;6725;48.112;11.604;2023-04-23T12:52:09;94556.78;;;19.18;100.00
13314;BME280;6725;48.112;11.604;2023-04-23T12:54:37;94546.06;;;19.40;100.00